createdAt,value
2023-02-12T00:01:14.876Z,99431.13
2023-02-12T00:06:35.676Z,99428.41
2023-02-12T00:11:56.378Z,99443.25
2023-02-12T00:17:17.868Z,99429.34
2023-02-12T00:22:38.586Z,99417.50
2023-02-12T00:27:59.420Z,99423.81
2023-02-12T00:33:20.208Z,99422.94
2023-02-12T00:38:41.449Z,99424.75
2023-02-12T00:44:04.089Z,99429.47
2023-02-12T00:49:25.380Z,99426.97
2023-02-12T00:54:46.376Z,99432.66
2023-02-12T01:00:08.878Z,99440.22
2023-02-12T01:05:30.785Z,99454.03
2023-02-12T01:10:56.849Z,99447.94
2023-02-12T01:16:22.515Z,99447.34
2023-02-12T01:21:44.615Z,99448.25
2023-02-12T01:27:05.298Z,99444.94
2023-02-12T01:32:27.373Z,99447.69
2023-02-12T01:37:48.484Z,99449.19
2023-02-12T01:43:12.776Z,99460.28
2023-02-12T01:48:36.606Z,99453.25
2023-02-12T01:53:59.753Z,99461.03
2023-02-12T01:59:20.956Z,99456.97
2023-02-12T02:04:45.419Z,99463.50
2023-02-12T02:10:07.544Z,99455.19
2023-02-12T02:15:28.589Z,99456.94
2023-02-12T02:21:20.594Z,99455.88
2023-02-12T02:27:11.580Z,99457.16
2023-02-12T02:32:42.721Z,99471.00
2023-02-12T02:38:08.108Z,99474.22
2023-02-12T02:43:35.761Z,99474.22
2023-02-12T02:49:02.338Z,99477.53
2023-02-12T02:54:26.726Z,99473.47
2023-02-12T02:59:49.937Z,99472.97
2023-02-12T03:05:18.017Z,99483.28
2023-02-12T03:10:47.441Z,99491.38
2023-02-12T03:16:23.477Z,99502.41
2023-02-12T03:21:58.598Z,99506.16
2023-02-12T03:27:21.792Z,99500.38
2023-02-12T03:33:18.123Z,99514.69
2023-02-12T03:38:47.806Z,99518.75
2023-02-12T03:44:08.401Z,99524.06
2023-02-12T03:49:42.924Z,99519.03
2023-02-12T03:55:04.230Z,99526.59
2023-02-12T04:00:25.074Z,99536.41
2023-02-12T04:05:46.200Z,99541.97
2023-02-12T04:11:28.874Z,99557.53
2023-02-12T04:17:05.365Z,99559.03
2023-02-12T04:22:38.962Z,99561.34
2023-02-12T04:28:18.884Z,99560.84
2023-02-12T04:33:47.386Z,99573.72
2023-02-12T04:39:11.305Z,99588.09
2023-02-12T04:44:33.706Z,99591.34
2023-02-12T04:49:54.759Z,99586.59
2023-02-12T04:55:15.728Z,99585.31
2023-02-12T05:00:37.019Z,99584.78
2023-02-12T05:06:04.634Z,99585.03
2023-02-12T05:11:25.422Z,99606.66
2023-02-12T05:16:45.968Z,99593.84
2023-02-12T05:22:06.764Z,99596.84
2023-02-12T05:27:27.603Z,99602.16
2023-02-12T05:32:48.458Z,99602.91
2023-02-12T05:38:09.287Z,99615.50
2023-02-12T05:43:30.215Z,99610.72
2023-02-12T05:48:51.364Z,99621.78
2023-02-12T05:54:12.239Z,99622.84
2023-02-12T05:59:33.923Z,99631.66
2023-02-12T06:04:54.889Z,99629.38
2023-02-12T06:10:15.893Z,99642.25
2023-02-12T06:15:37.261Z,99652.31
2023-02-12T06:20:58.136Z,99651.28
2023-02-12T06:26:19.392Z,99658.34
2023-02-12T06:31:40.409Z,99668.28
2023-02-12T06:37:01.693Z,99674.97
2023-02-12T06:42:22.385Z,99680.50
2023-02-12T06:47:43.178Z,99682.47
2023-02-12T06:53:03.995Z,99688.53
2023-02-12T06:58:24.770Z,99679.91
2023-02-12T07:03:55.305Z,99692.03
2023-02-12T07:09:16.609Z,99690.69
2023-02-12T07:14:37.983Z,99709.91
2023-02-12T07:19:59.088Z,99712.91
2023-02-12T07:25:19.787Z,99712.78
2023-02-12T07:30:42.594Z,99728.69
2023-02-12T07:36:04.943Z,99724.97
2023-02-12T07:41:30.486Z,99728.00
2023-02-12T07:46:51.511Z,99731.81
2023-02-12T07:52:13.563Z,99741.78
2023-02-12T07:57:35.556Z,99745.47
2023-02-12T08:02:56.580Z,99757.19
2023-02-12T08:08:17.318Z,99757.19
2023-02-12T08:13:38.321Z,99765.53
2023-02-12T08:19:14.357Z,99754.84
2023-02-12T08:24:38.196Z,99769.22
2023-02-12T08:29:58.941Z,99777.78
2023-02-12T08:35:19.763Z,99776.13
2023-02-12T08:40:40.786Z,99772.53
2023-02-12T08:46:11.715Z,99773.91
2023-02-12T08:51:34.546Z,99779.31
2023-02-12T08:56:59.676Z,99796.25
2023-02-12T09:02:20.778Z,99795.72
2023-02-12T09:07:41.456Z,99800.69
2023-02-12T09:13:02.335Z,99800.97
2023-02-12T09:18:23.367Z,99816.16
2023-02-12T09:23:44.379Z,99810.59
2023-02-12T09:29:05.393Z,99822.16
2023-02-12T09:34:26.064Z,99832.13
2023-02-12T09:39:47.761Z,99834.78
2023-02-12T09:45:17.967Z,99830.53
2023-02-12T09:50:43.416Z,99833.38
2023-02-12T09:56:09.695Z,99839.69
2023-02-12T10:01:30.793Z,99832.75
2023-02-12T10:06:59.636Z,99838.31
2023-02-12T10:12:26.334Z,99848.59
2023-02-12T10:18:04.611Z,99850.09
2023-02-12T10:23:31.438Z,99846.38
2023-02-12T10:28:52.566Z,99847.25
2023-02-12T10:34:19.729Z,99843.22
2023-02-12T10:39:49.178Z,99834.88
2023-02-12T10:45:18.441Z,99842.63
2023-02-12T10:51:04.561Z,99834.25
2023-02-12T10:56:25.717Z,99837.56
2023-02-12T11:01:47.011Z,99840.78
2023-02-12T11:07:09.001Z,99841.69
2023-02-12T11:12:37.644Z,99827.38
2023-02-12T11:18:05.132Z,99822.34
2023-02-12T11:23:29.705Z,99830.94
2023-02-12T11:28:55.208Z,99825.28
2023-02-12T11:34:16.978Z,99831.38
2023-02-12T11:39:40.076Z,99820.94
2023-02-12T11:45:00.911Z,99830.13
2023-02-12T11:50:31.696Z,99834.88
2023-02-12T11:55:57.851Z,99833.09
2023-02-12T12:01:29.698Z,99825.75
2023-02-12T12:06:58.196Z,99826.44
2023-02-12T12:12:22.857Z,99823.94
2023-02-12T12:18:20.900Z,99821.69
2023-02-12T12:23:50.020Z,99820.88
2023-02-12T12:29:18.366Z,99820.41
2023-02-12T12:34:39.510Z,99815.59
2023-02-12T12:40:12.460Z,99810.75
2023-02-12T12:45:55.150Z,99808.72
2023-02-12T12:51:26.392Z,99814.56
2023-02-12T12:56:56.802Z,99799.06
2023-02-12T13:02:45.769Z,99808.97
2023-02-12T13:08:23.468Z,99805.53
2023-02-12T13:13:46.290Z,99809.31
2023-02-12T13:19:16.137Z,99800.78
2023-02-12T13:24:48.208Z,99799.03
2023-02-12T13:30:18.092Z,99804.09
2023-02-12T13:35:42.424Z,99803.38
2023-02-12T13:41:07.868Z,99810.84
2023-02-12T13:46:44.932Z,99806.66
2023-02-12T13:52:20.317Z,99804.63
2023-02-12T13:57:41.573Z,99803.78
2023-02-12T14:03:08.689Z,99802.72
2023-02-12T14:08:54.622Z,99791.63
2023-02-12T14:14:35.774Z,99799.81
2023-02-12T14:20:05.750Z,99809.25
2023-02-12T14:25:35.743Z,99810.63
2023-02-12T14:31:18.793Z,99794.31
2023-02-12T14:36:43.940Z,99798.06
2023-02-12T14:42:30.913Z,99807.50
2023-02-12T14:47:52.297Z,99804.53
2023-02-12T14:53:32.106Z,99802.53
2023-02-12T14:58:53.825Z,99813.34
2023-02-12T15:04:23.946Z,99816.03
2023-02-12T15:09:48.301Z,99808.44
2023-02-12T15:15:28.139Z,99796.00
2023-02-12T15:20:56.851Z,99806.06
2023-02-12T15:26:20.814Z,99822.00
2023-02-12T15:31:42.056Z,99814.81
2023-02-12T15:37:04.130Z,99812.66
2023-02-12T15:42:37.910Z,99818.63
2023-02-12T15:48:18.046Z,99817.97
2023-02-12T15:53:39.215Z,99813.00
2023-02-12T15:59:01.273Z,99818.94
2023-02-12T16:04:22.028Z,99813.50
2023-02-12T16:09:42.845Z,99821.69
2023-02-12T16:15:03.985Z,99818.22
2023-02-12T16:20:27.256Z,99814.25
2023-02-12T16:25:54.220Z,99819.91
2023-02-12T16:31:16.437Z,99820.22
2023-02-12T16:36:37.572Z,99814.22
2023-02-12T16:41:58.677Z,99828.88
2023-02-12T16:47:20.753Z,99828.63
2023-02-12T16:52:41.814Z,99827.66
2023-02-12T16:58:02.731Z,99834.50
2023-02-12T17:03:24.887Z,99836.59
2023-02-12T17:08:45.974Z,99831.34
2023-02-12T17:14:06.811Z,99836.91
2023-02-12T17:19:27.935Z,99836.91
2023-02-12T17:24:52.035Z,99845.78
2023-02-12T17:30:17.532Z,99842.78
2023-02-12T17:35:38.986Z,99831.13
2023-02-12T17:41:00.044Z,99836.47
2023-02-12T17:46:22.667Z,99846.56
2023-02-12T17:51:43.650Z,99845.81
2023-02-12T17:57:05.063Z,99850.94
2023-02-12T18:02:26.416Z,99847.63
2023-02-12T18:07:47.461Z,99846.66
2023-02-12T18:13:08.608Z,99864.09
2023-02-12T18:18:29.608Z,99867.84
2023-02-12T18:23:50.728Z,99864.84
2023-02-12T18:29:11.906Z,99867.41
2023-02-12T18:34:33.079Z,99872.72
2023-02-12T18:39:54.342Z,99875.50
2023-02-12T18:45:15.688Z,99866.94
2023-02-12T18:50:37.026Z,99870.22
2023-02-12T18:55:58.555Z,99861.16
2023-02-12T19:01:20.161Z,99859.41
2023-02-12T19:06:42.681Z,99869.03
2023-02-12T19:12:03.989Z,99861.19
2023-02-12T19:17:25.260Z,99870.81
2023-02-12T19:22:46.547Z,99868.03
2023-02-12T19:28:11.068Z,99875.63
2023-02-12T19:33:32.237Z,99874.13
2023-02-12T19:38:52.950Z,99874.13
2023-02-12T19:44:17.916Z,99870.91
2023-02-12T19:49:39.400Z,99868.13
2023-02-12T19:55:00.186Z,99874.13
2023-02-12T20:00:21.048Z,99874.66
2023-02-12T20:05:46.592Z,99867.38
2023-02-12T20:11:08.237Z,99863.84
2023-02-12T20:16:34.291Z,99877.97
2023-02-12T20:21:57.682Z,99868.13
2023-02-12T20:27:18.456Z,99872.19
2023-02-12T20:32:44.561Z,99883.28
2023-02-12T20:38:05.857Z,99879.75
2023-02-12T20:43:28.842Z,99886.88
2023-02-12T20:48:50.049Z,99891.16
2023-02-12T20:54:11.153Z,99896.47
2023-02-12T20:59:32.652Z,99891.44
2023-02-12T21:04:53.669Z,99886.88
2023-02-12T21:10:14.717Z,99882.59
2023-02-12T21:15:35.926Z,99880.56
2023-02-12T21:21:21.162Z,99883.34
2023-02-12T21:26:41.863Z,99877.59
2023-02-12T21:32:03.209Z,99868.81
2023-02-12T21:37:27.778Z,99874.81
2023-02-12T21:42:48.704Z,99878.59
2023-02-12T21:48:09.816Z,99881.88
2023-02-12T21:53:30.537Z,99873.31
2023-02-12T21:58:52.664Z,99872.53
2023-02-12T22:04:14.345Z,99884.91
2023-02-12T22:09:35.297Z,99886.69
2023-02-12T22:14:55.992Z,99883.38
2023-02-12T22:20:16.860Z,99890.47
2023-02-12T22:25:37.934Z,99889.47
2023-02-12T22:30:59.305Z,99894.81
2023-02-12T22:36:22.151Z,99889.03
2023-02-12T22:41:43.268Z,99898.63
2023-02-12T22:47:04.585Z,99896.38
2023-02-12T22:52:25.378Z,99906.47
2023-02-12T22:57:46.109Z,99891.91
2023-02-12T23:03:06.787Z,99900.25
2023-02-12T23:08:27.574Z,99904.22
2023-02-12T23:13:48.462Z,99908.28
2023-02-12T23:19:09.559Z,99891.16
2023-02-12T23:24:30.890Z,99891.72
2023-02-12T23:29:52.022Z,99894.03
2023-02-12T23:35:12.884Z,99879.91
2023-02-12T23:40:34.092Z,99880.72
2023-02-12T23:45:55.305Z,99875.44
2023-02-12T23:51:16.008Z,99871.41
2023-02-12T23:56:36.991Z,99871.91
